Garrett, Illinois
Current Conditions -  °F | °C
As of 2:53 AM on Thursday 27 Nov 2014 (Local Time) from KCMI Reporting Station
Clear Clear  
Wind Chill: 11°   Ceiling: Unl
Heat Index: 22°   Visibility: 7mi
Dew Point: 19°   Wind: 10mph
Humidity: 89%   Direction: 310°NW
Pressure: 30.25"   Gusts: NA
Location:  39.82°N, 88.4452°W
Report Text: KCMI 270853Z AUTO 31009KT 7SM CLR M06/M07 A3025 RMK AO2 SLP254 T10561072 53021 $
Loading
Personal Weather Stations






























Interactive Weather Map New forecast layout! Learn more

10-Day Weather Forecast

Advertisements
Track Severe Weather on mobile